Tiempo atmosférico en la estación meteorológica de Barcelona, Museo Marítimo, Barcelona (37 m.)



Fecha
DESCASC
Temp. máxima en grados centígrados (hora)
DESCASC
Temp. mínima en grados centígrados (hora)
DESCASC
Temp. media en grados centígrados
DESCASC
Racha de viento máxima en m/sg (hora)
DESCASC
Velocidad máxima media en intervalos de 10 minutos(hora)
DESCASC
Precipitaciones diarias en mm
DESCASC
Precipitaciones de 00:00 a 06:00 en mm
DESCASC
Precipitaciones de 06:00 a 12:00 en mm
DESCASC
Precipitaciones de 12:00 a 18:00 en mm
DESCASC
Precipitaciones de 18:00 a 24:00 en mm
DESCASC
18-01-2018 15.2 (15:00) 9.9 (08:30) 12.5 6.67 (16:10) 3.61 (16:00) 0 0 0 0 0
17-01-2018 16.3 (14:40) 12.3 (23:50) 14.3 12.22 (03:10) 5 (00:20) 0.4 0 0 0 0.4
16-01-2018 17.4 (16:00) 8.2 (06:10) 12.8 10 (10:40) 3.89 (10:20) 0 0 0 0 0
15-01-2018 13.8 (15:30) 7.3 (05:50) 10.6 6.39 (19:00) 3.33 (19:30) 0 0 0 0 0
14-01-2018 13.4 (14:20) 8.2 (00:00) 10.8 7.22 (00:20) 3.61 (00:40) 2.4 2.4 0 0 0
13-01-2018 13.7 (14:10) 6.4 (00:00) 10 7.5 (20:00) 3.33 (23:59) 4.4 0 0 0 4.4
12-01-2018 13 (15:30) 6.5 (00:00) 9.8 6.11 (08:40) 3.33 (06:20) 0 0 0 0 0
11-01-2018 14 (15:20) 9.1 (00:00) 11.6 7.5 (11:00) 3.33 (12:00) 0 0 0 0 0
10-01-2018 15.1 (14:50) 9.1 (00:00) 12.1 8.06 (18:30) 3.61 (14:30) 0 0 0 0 0
09-01-2018 14.8 (14:50) 6.4 (00:00) 10.6 8.06 (02:20) 3.89 (02:20) 0 0 0 0 0
08-01-2018 14.7 (16:00) 7.6 (00:00) 11.1 6.11 (11:50) 3.06 (21:30) 0 0 0 0 0
07-01-2018 14.8 (01:20) 8.7 (00:00) 11.8 10 (10:10) 3.89 (09:40) 5 0.4 2.2 2.4 0
06-01-2018 15.5 (13:30) 10.4 (00:00) 12.9 11.94 (18:50) 4.17 (20:30) 0 0 0 0 0
05-01-2018 20.1 (15:00) 13 (00:00) 16.6 9.72 (12:30) 4.17 (14:40) 0 0 0 0 0
04-01-2018 22.6 (15:50) 16.9 (23:59) 19.8 11.67 (12:50) 5.83 (12:30) 0 0 0 0 0
03-01-2018 22 (16:00) 14.7 (00:00) 18.3 12.78 (13:30) 5.56 (12:20) 0 0 0 0 0
02-01-2018 18.4 (15:40) 10.7 (00:00) 14.5 8.61 (08:30) 3.61 (15:20) 0 0 0 0 0
01-01-2018 16.1 (15:30) 10.3 (00:00) 13.2 11.11 (16:50) 5.83 (14:00) 0 0 0 0 0
31-12-2017 19 (16:00) 11.5 (00:00) 15.3 7.22 (19:30) 3.33 (18:30) 0 0 0 0 0
30-12-2017 20.9 (15:40) 10.2 (00:00) 15.5 10 (11:20) 3.61 (10:10) 0 0 0 0 0
29-12-2017 14.5 (15:40) 7.4 (00:00) 11 5.83 (15:30) 2.78 (15:40) 0.2 0 0.2 0 0
28-12-2017 13.5 (14:50) 7.2 (00:00) 10.3 10.28 (02:40) 4.72 (02:30) 0 0 0 0 0
27-12-2017 14.6 (15:50) 7.9 (00:00) 11.3 11.11 (17:20) 4.44 (13:50) 1.2 1.2 0 0 0
26-12-2017 14.8 (13:40) 8.5 (00:00) 11.7 5 (16:00) 2.5 (04:20) 0 0 0 0 0
25-12-2017 15.4 (14:20) 9 (00:00) 12.2 4.72 (14:30) 2.5 (14:40) 0 0 0 0 0
24-12-2017 16 (16:00) 7.9 (00:00) 12 5.83 (13:30) 3.33 (13:30) 0 0 0 0 0

Gráficas

Temp. máximas Temp. mínimas Temp. medias Precipitaciones Rachas de viento máximas Velocidades máximas media en intervalos de 10 minutos

Datos horarios

Fecha y hora oficial Temperatura (ºC) Velocidad del viento (km/h) Dirección del viento Racha (km/h) Dirección de racha Precipitación (mm) Presión (hPa) Tendencia (hPa) Humedad (%)
2018-01-22 23:00:00 13.5 0 Calma 6 Nordeste 0 -- -- 80
2018-01-22 22:00:00 13.8 2 Este 6 Este 0 -- -- 79
2018-01-22 21:00:00 14.1 0 Calma 8 Nordeste 0 -- -- 72
2018-01-22 20:00:00 14.3 3 Este 6 Nordeste 0 -- -- 69
2018-01-22 19:00:00 15 2 Sudeste 5 Este 0 -- -- 73
2018-01-22 18:00:00 16.1 3 Sudeste 12 Sudeste 0 -- -- 67
2018-01-22 17:00:00 19.1 3 Este 12 Oeste 0 -- -- 49
2018-01-22 16:00:00 20.1 5 Sudoeste 14 Oeste 0 -- -- 47
2018-01-22 15:00:00 20.1 5 Este 19 Nordeste 0 -- -- 48
2018-01-22 14:00:00 19.9 5 Sudoeste 17 Nordeste 0 -- -- 50
2018-01-22 13:00:00 18.4 4 Este 28 Noroeste 0 -- -- 53
2018-01-22 12:00:00 16.9 11 Oeste 25 Oeste 0 -- -- 57
2018-01-22 11:00:00 15 9 Oeste 22 Oeste 0 -- -- 63
2018-01-22 10:00:00 14.3 5 Sudoeste 14 Oeste 0 -- -- 64
2018-01-22 09:00:00 14.2 2 Este 21 Oeste 0 -- -- 65
2018-01-22 08:00:00 14.2 10 Oeste 26 Oeste 0 -- -- 65
2018-01-22 07:00:00 14.3 9 Oeste 21 Oeste 0 -- -- 65
2018-01-22 06:00:00 14.5 10 Oeste 17 Oeste 0 -- -- 65
2018-01-22 05:00:00 14.5 2 Norte 12 Este 0 -- -- 64
2018-01-22 04:00:00 15.6 6 Este 37 Nordeste 0 -- -- 60
2018-01-22 03:00:00 15.7 10 Nordeste 21 Nordeste 0 -- -- 60
2018-01-22 02:00:00 15.8 2 Sur 26 Norte 0 -- -- 61
2018-01-22 01:00:00 16.4 5 Norte 19 Oeste 0 -- -- 58
2018-01-22 00:00:00 17.2 7 Oeste 24 Sudoeste 0 -- -- 56
2018-01-21 23:00:00 17.6 5 Sudoeste 23 Oeste 0 -- -- 55
2018-01-21 22:00:00 18 6 Oeste 28 Oeste 0 -- -- 55
2018-01-21 21:00:00 18.8 8 Oeste 23 Oeste 0 -- -- 54
2018-01-21 20:00:00 19.3 4 Sudoeste 21 Oeste 0 -- -- 54
2018-01-21 19:00:00 19.3 5 Oeste 13 Oeste 0 -- -- 55
2018-01-21 18:00:00 20.9 6 Sudoeste 14 Oeste 0 -- -- 49
2018-01-21 17:00:00 22.1 7 Oeste 17 Nordeste 0 -- -- 47
2018-01-21 16:00:00 21.4 6 Nordeste 18 Nordeste 0 -- -- 49
2018-01-21 15:00:00 21 5 Sudoeste 19 Oeste 0 -- -- 50
2018-01-21 14:00:00 19.7 6 Oeste 19 Oeste 0 -- -- 54
2018-01-21 13:00:00 18.7 9 Oeste 18 Oeste 0 -- -- 56
2018-01-21 12:00:00 17.1 8 Oeste 26 Oeste 0 -- -- 59
2018-01-21 11:00:00 16 15 Oeste 26 Oeste 0 -- -- 62
2018-01-21 10:00:00 15.4 5 Nordeste 23 Oeste 0 -- -- 65
2018-01-21 09:00:00 15.4 13 Oeste 30 Oeste 0 -- -- 64
2018-01-21 08:00:00 14.9 8 Sudoeste 28 Oeste 0 -- -- 65
2018-01-21 07:00:00 15 10 Oeste 27 Noroeste 0 -- -- 64
2018-01-21 06:00:00 15.2 6 Sudoeste 29 Oeste 0 -- -- 64
2018-01-21 05:00:00 15.4 14 Oeste 32 Oeste 0 -- -- 63
2018-01-21 04:00:00 15.5 17 Oeste 35 Oeste 0 -- -- 62
2018-01-21 03:00:00 15.3 16 Oeste 36 Oeste 0 -- -- 63
2018-01-21 02:00:00 15 6 Sudoeste 19 Noroeste 0 -- -- 63
2018-01-21 01:00:00 14.8 4 Oeste 16 Sudoeste 0 -- -- 63
2018-01-21 00:00:00 15 6 Sur 20 Oeste 0 -- -- 61
2018-01-20 23:00:00 15.2 3 Sudoeste 16 Sudeste 0 -- -- 59
2018-01-20 22:00:00 15.7 4 Sudoeste 23 Oeste 0 -- -- 56
2018-01-20 21:00:00 16.1 7 Oeste 17 Oeste 0 -- -- 53
2018-01-20 20:00:00 16 5 Oeste 14 Oeste 0 -- -- 50
2018-01-20 19:00:00 15.6 7 Sudoeste 18 Oeste 0 -- -- 46
2018-01-20 18:00:00 15 9 Sudoeste 24 Sudoeste 0 -- -- 56
2018-01-20 17:00:00 16.4 6 Sudoeste 24 Sudoeste 0 -- -- 48
2018-01-20 16:00:00 17.1 4 Sudoeste 25 Oeste 0 -- -- 42
2018-01-20 15:00:00 17.3 14 Oeste 31 Oeste 0 -- -- 40
2018-01-20 14:00:00 15.4 8 Oeste 19 Oeste 0 -- -- 53
2018-01-20 13:00:00 13.8 10 Oeste 21 Oeste 0 -- -- 55
2018-01-20 12:00:00 12.8 9 Oeste 26 Oeste 0 -- -- 55
2018-01-20 11:00:00 11.2 2 Oeste 13 Oeste 0 -- -- 62
2018-01-20 10:00:00 10.1 4 Oeste 15 Oeste 0 -- -- 65
2018-01-20 09:00:00 9.6 5 Oeste 12 Oeste 0 -- -- 66
2018-01-20 08:00:00 9.5 0 Calma 14 Oeste 0 -- -- 68
2018-01-20 07:00:00 9.7 5 Oeste 17 Oeste 0 -- -- 66
2018-01-20 06:00:00 9.8 8 Oeste 15 Oeste 0 -- -- 66
2018-01-20 05:00:00 10 4 Oeste 13 Oeste 0 -- -- 65
2018-01-20 04:00:00 10.4 6 Oeste 13 Oeste 0 -- -- 63
2018-01-20 03:00:00 10.8 7 Oeste 12 Oeste 0 -- -- 64
2018-01-20 02:00:00 11.3 5 Oeste 12 Oeste 0 -- -- 66
2018-01-20 01:00:00 11.6 4 Oeste 7 Oeste 0 -- -- 74
2018-01-20 00:00:00 11.6 2 Este 7 Nordeste 0 -- -- 73
2018-01-19 23:00:00 11.3 3 Oeste 7 Norte 0 -- -- 76
2018-01-19 22:00:00 11.7 3 Norte 10 Nordeste 0 -- -- 75
2018-01-19 21:00:00 11.4 0 Calma 8 Nordeste 0 -- -- 76
2018-01-19 20:00:00 11.1 3 Este 5 Sudeste 0 -- -- 80
2018-01-19 19:00:00 11.5 0 Calma 10 Nordeste 0 -- -- 79
2018-01-19 18:00:00 11.8 3 Este 10 Sudeste 0 -- -- 77
2018-01-19 17:00:00 12.8 2 Este 10 Sudeste 0 -- -- 67
2018-01-19 16:00:00 12.9 4 Este 11 Este 0 -- -- 63
2018-01-19 15:00:00 13.2 3 Este 12 Este 0 -- -- 61
2018-01-19 14:00:00 12.7 5 Sudeste 11 Sudeste 0 -- -- 59
2018-01-19 13:00:00 12.2 4 Nordeste 12 Nordeste 0 -- -- 59
2018-01-19 12:00:00 11.4 3 Este 7 Oeste 0 -- -- 62
2018-01-19 11:00:00 10.1 2 Nordeste 10 Oeste 0 -- -- 66
2018-01-19 10:00:00 9.5 2 Sudeste 12 Oeste 0 -- -- 71
2018-01-19 09:00:00 8.6 4 Oeste 8 Oeste 0 -- -- 71
2018-01-19 08:00:00 8.1 0 Calma 4 Sudoeste 0 -- -- 76
2018-01-19 07:00:00 8.2 0 Calma 7 Oeste 0 -- -- 75
2018-01-19 06:00:00 8.2 0 Calma 4 Nordeste 0 -- -- 78
2018-01-19 05:00:00 8.4 0 Calma 8 Noroeste 0 -- -- 75
2018-01-19 04:00:00 8.6 0 Calma 3 Norte 0 -- -- 74
2018-01-19 03:00:00 9.3 0 Calma 5 Oeste 0 -- -- 72
2018-01-19 02:00:00 10.2 3 Oeste 8 Oeste 0 -- -- 66
2018-01-19 01:00:00 10.2 2 Oeste 9 Oeste 0 -- -- 66
2018-01-19 00:00:00 10.6 4 Oeste 8 Oeste 0 -- -- 63
2018-01-18 23:00:00 10.9 3 Oeste 15 Oeste 0 -- -- 61
2018-01-18 22:00:00 11.4 8 Oeste 13 Oeste 0 -- -- 59
2018-01-18 21:00:00 12 4 Oeste 13 Sudoeste 0 -- -- 57
2018-01-18 20:00:00 12.1 3 Oeste 7 Oeste 0 -- -- 61
2018-01-18 19:00:00 12.6 4 Oeste 16 Oeste 0 -- -- 65
2018-01-18 18:00:00 13.2 8 Oeste 20 Oeste 0 -- -- 62
2018-01-18 17:00:00 14 10 Oeste 24 Oeste 0 -- -- 58
2018-01-18 16:00:00 14.8 13 Oeste 22 Oeste 0 -- -- 54
2018-01-18 15:00:00 15.2 7 Oeste 16 Oeste 0 -- -- 50
2018-01-18 14:00:00 13.9 10 Oeste 19 Oeste 0 -- -- 53
2018-01-18 13:00:00 13.8 9 Oeste 17 Sudoeste 0 -- -- 52
2018-01-18 12:00:00 12.5 4 Nordeste 14 Oeste 0 -- -- 55
2018-01-18 11:00:00 11.2 5 Oeste 19 Oeste 0 -- -- 60
2018-01-18 10:00:00 10.5 7 Oeste 18 Oeste 0 -- -- 64
2018-01-18 09:00:00 10 9 Oeste 17 Oeste 0 -- -- 64
2018-01-18 08:00:00 10.3 6 Oeste 14 Oeste 0 -- -- 64
2018-01-18 07:00:00 10.6 5 Oeste 10 Oeste 0 -- -- 64
2018-01-18 06:00:00 11.1 3 Oeste 8 Oeste 0 -- -- 65
2018-01-18 05:00:00 11.7 3 Oeste 9 Oeste 0 -- -- 64
2018-01-18 04:00:00 11.8 5 Oeste 10 Oeste 0 -- -- 64
2018-01-18 03:00:00 11.8 5 Oeste 10 Oeste 0 -- -- 65
2018-01-18 02:00:00 11.7 6 Oeste 13 Noroeste 0 -- -- 71
2018-01-18 01:00:00 12.2 0 Calma 6 Oeste 0 -- -- 79
2018-01-18 00:00:00 12.3 0 Calma 7 Oeste 0.2 -- -- 83
2018-01-17 23:00:00 13.1 4 Oeste 7 Oeste 0.2 -- -- 80
2018-01-17 22:00:00 13.3 2 Este 11 Sudeste 0 -- -- 80
2018-01-17 21:00:00 13.7 2 Nordeste 8 Sudeste 0 -- -- 78
2018-01-17 20:00:00 14 3 Oeste 9 Oeste 0 -- -- 75
2018-01-17 19:00:00 14 5 Oeste 23 Oeste 0 -- -- 77
2018-01-17 18:00:00 14.1 4 Oeste 13 Este 0 -- -- 77
2018-01-17 17:00:00 15 2 Nordeste 10 Nordeste 0 -- -- 73
2018-01-17 16:00:00 15.7 5 Sudeste 11 Sudeste 0 -- -- 73
2018-01-17 15:00:00 16 6 Sudeste 15 Sudeste 0 -- -- 71
2018-01-17 14:00:00 16 6 Este 18 Este 0 -- -- 67
2018-01-17 13:00:00 15.8 5 Este 18 Este 0 -- -- 61
2018-01-17 12:00:00 15 5 Este 19 Este 0 -- -- 63
2018-01-17 11:00:00 15.1 4 Nordeste 19 Nordeste 0 -- -- 52
2018-01-17 10:00:00 14.4 5 Este 27 Este 0 -- -- 56
2018-01-17 09:00:00 14.2 11 Este 28 Nordeste 0 -- -- 57
2018-01-17 08:00:00 14.2 12 Sudoeste 40 Oeste 0 -- -- 59
2018-01-17 07:00:00 14.3 15 Oeste 40 Oeste 0 -- -- 61
2018-01-17 06:00:00 14.5 8 Sudeste 36 Oeste 0 -- -- 62
2018-01-17 05:00:00 14.8 16 Oeste 42 Oeste 0 -- -- 62
2018-01-17 04:00:00 14.5 12 Oeste 44 Oeste 0 -- -- 64
2018-01-17 03:00:00 14.5 9 Oeste 31 Sudoeste 0 -- -- 64
2018-01-17 02:00:00 14.7 12 Oeste 35 Oeste 0 -- -- 63
2018-01-17 01:00:00 14.7 10 Oeste 42 Oeste 0 -- -- 62
2018-01-17 00:00:00 14.8 8 Oeste 30 Oeste 0 -- -- 61
2018-01-16 23:00:00 15.2 7 Sudoeste 28 Oeste 0 -- -- 60
2018-01-16 22:00:00 15.5 10 Oeste 24 Oeste 0 -- -- 59
2018-01-16 21:00:00 15.3 4 Oeste 17 Oeste 0 -- -- 61
2018-01-16 20:00:00 15.3 4 Oeste 13 Noroeste 0 -- -- 61
2018-01-16 19:00:00 15.2 2 Sudoeste 8 Oeste 0 -- -- 63
2018-01-16 18:00:00 15.9 3 Oeste 10 Norte 0 -- -- 59
2018-01-16 17:00:00 16.8 3 Nordeste 12 Nordeste 0 -- -- 54
2018-01-16 16:00:00 17.4 5 Nordeste 18 Nordeste 0 -- -- 51
2018-01-16 15:00:00 16.9 7 Nordeste 14 Nordeste 0 -- -- 52
2018-01-16 14:00:00 15.8 4 Sudeste 15 Nordeste 0 -- -- 54
2018-01-16 13:00:00 14.5 4 Este 14 Noroeste 0 -- -- 55
2018-01-16 12:00:00 12.9 5 Nordeste 15 Nordeste 0 -- -- 56
2018-01-16 11:00:00 11.9 3 Sudoeste 36 Oeste 0 -- -- 58
2018-01-16 10:00:00 11.4 12 Oeste 31 Oeste 0 -- -- 58
2018-01-16 09:00:00 10.9 11 Oeste 24 Noroeste 0 -- -- 58
2018-01-16 08:00:00 8.5 2 Sudoeste 8 Oeste 0 -- -- 65
2018-01-16 07:00:00 9.1 6 Oeste 10 Oeste 0 -- -- 63
2018-01-16 06:00:00 8.4 0 Calma 8 Oeste 0 -- -- 67
2018-01-16 05:00:00 9.6 3 Sudoeste 10 Oeste 0 -- -- 60
2018-01-16 04:00:00 9.7 4 Oeste 13 Oeste 0 -- -- 61
2018-01-16 03:00:00 9.3 4 Oeste 9 Oeste 0 -- -- 64
2018-01-16 02:00:00 9.8 4 Oeste 8 Noroeste 0 -- -- 61
2018-01-16 01:00:00 10.1 0 Calma 12 Oeste 0 -- -- 63
2018-01-16 00:00:00 10.4 6 Oeste 15 Oeste 0 -- -- 61
2018-01-15 23:00:00 10.3 5 Oeste 13 Oeste 0 -- -- 63
2018-01-15 22:00:00 9.7 2 Sudoeste 12 Sudoeste 0 -- -- 66
2018-01-15 21:00:00 10 5 Oeste 12 Oeste 0 -- -- 64
2018-01-15 20:00:00 10 6 Oeste 22 Noroeste 0 -- -- 64
2018-01-15 19:00:00 10.2 12 Oeste 23 Oeste 0 -- -- 62
2018-01-15 18:00:00 10.5 4 Oeste 15 Oeste 0 -- -- 61
2018-01-15 17:00:00 11.7 6 Oeste 18 Sudoeste 0 -- -- 57
2018-01-15 16:00:00 13.8 6 Oeste 19 Sudoeste 0 -- -- 50
2018-01-15 15:00:00 13.4 8 Oeste 22 Oeste 0 -- -- 52
2018-01-15 14:00:00 12.7 10 Oeste 17 Oeste 0 -- -- 54
2018-01-15 13:00:00 12 5 Nordeste 13 Oeste 0 -- -- 59
2018-01-15 12:00:00 11.5 5 Oeste 14 Sudoeste 0 -- -- 59
2018-01-15 11:00:00 9.8 8 Oeste 14 Oeste 0 -- -- 64
2018-01-15 10:00:00 8.5 5 Oeste 10 Oeste 0 -- -- 70
2018-01-15 09:00:00 7.9 5 Oeste 9 Noroeste 0 -- -- 72
2018-01-15 08:00:00 7.5 4 Oeste 10 Oeste 0 -- -- 74
2018-01-15 07:00:00 7.7 6 Oeste 10 Oeste 0 -- -- 73
2018-01-15 06:00:00 7.4 4 Oeste 8 Oeste 0 -- -- 75
2018-01-15 05:00:00 7.6 5 Oeste 7 Oeste 0 -- -- 75
2018-01-15 04:00:00 7.7 4 Oeste 8 Oeste 0 -- -- 74
2018-01-15 03:00:00 7.9 2 Oeste 5 Oeste 0 -- -- 73
2018-01-15 02:00:00 8.7 3 Oeste 9 Nordeste 0 -- -- 69
2018-01-15 01:00:00 9 2 Nordeste 9 Nordeste 0 -- -- 68
2018-01-15 00:00:00 9.1 0 Calma 8 Nordeste 0 -- -- 69
2018-01-14 23:00:00 9.3 6 Oeste 11 Oeste 0 -- -- 68
2018-01-14 22:00:00 9.5 5 Oeste 10 Sudoeste 0 -- -- 66
2018-01-14 21:00:00 9.9 5 Oeste 13 Oeste 0 -- -- 66
2018-01-14 20:00:00 10 6 Oeste 14 Oeste 0 -- -- 66
2018-01-14 19:00:00 10.4 4 Oeste 13 Oeste 0 -- -- 66
2018-01-14 18:00:00 10.9 5 Oeste 18 Oeste 0 -- -- 65
2018-01-14 17:00:00 12.3 5 Oeste 14 Oeste 0 -- -- 60
2018-01-14 16:00:00 13.1 6 Oeste 12 Oeste 0 -- -- 59
2018-01-14 15:00:00 13.2 4 Oeste 15 Noroeste 0 -- -- 58
2018-01-14 14:00:00 13.1 9 Oeste 16 Oeste 0 -- -- 60
2018-01-14 13:00:00 12.3 8 Oeste 17 Oeste 0 -- -- 63
2018-01-14 12:00:00 11.3 8 Oeste 14 Oeste 0 -- -- 67
2018-01-14 11:00:00 9.5 6 Oeste 19 Oeste 0 -- -- 73
2018-01-14 10:00:00 8.6 9 Oeste 16 Oeste 0 -- -- 74
2018-01-14 09:00:00 8.2 8 Oeste 18 Oeste 0 -- -- 76
2018-01-14 08:00:00 8.7 9 Oeste 20 Oeste 0 -- -- 79
2018-01-14 07:00:00 9.1 3 Oeste 17 Oeste 0 -- -- 79
2018-01-14 06:00:00 9.6 5 Oeste 17 Oeste 0 -- -- 79
2018-01-14 05:00:00 9.8 5 Oeste 9 Oeste 0 -- -- 87
2018-01-14 04:00:00 10.1 0 Calma 4 Este 0.2 -- -- 92
2018-01-14 03:00:00 10.2 2 Este 5 Este 0 -- -- 92
2018-01-14 02:00:00 10.5 4 Sudoeste 14 Oeste 1.2 -- -- 90
2018-01-14 01:00:00 10.8 9 Oeste 26 Oeste 1 -- -- 84
2018-01-14 00:00:00 12.3 12 Oeste 21 Oeste 0 -- -- 79
2018-01-13 23:00:00 11.4 4 Oeste 10 Oeste 3 -- -- 90
2018-01-13 22:00:00 12.2 6 Sudoeste 12 Oeste 1.4 -- -- 84
2018-01-13 21:00:00 12.7 5 Oeste 18 Sudoeste 0 -- -- 81
2018-01-13 20:00:00 12.9 9 Sudoeste 27 Sudoeste 0 -- -- 80
2018-01-13 19:00:00 13.3 5 Sudoeste 13 Oeste 0 -- -- 72
2018-01-13 18:00:00 13.1 6 Oeste 13 Sudoeste 0 -- -- 69
2018-01-13 17:00:00 12.6 4 Sudoeste 10 Oeste 0 -- -- 68
2018-01-13 16:00:00 13 2 Oeste 13 Oeste 0 -- -- 65
2018-01-13 15:00:00 13.3 4 Sudoeste 22 Oeste 0 -- -- 61
2018-01-13 14:00:00 13.5 3 Sur 6 Este 0 -- -- 62
2018-01-13 13:00:00 11.9 2 Sudeste 5 Este 0 -- -- 66
2018-01-13 12:00:00 10.7 3 Sudeste 6 Sudeste 0 -- -- 69
2018-01-13 11:00:00 9.4 3 Este 6 Este 0 -- -- 71
2018-01-13 10:00:00 7.7 0 Calma 4 Sudeste 0 -- -- 73
2018-01-13 09:00:00 7.1 0 Calma 6 Oeste 0 -- -- 72
2018-01-13 08:00:00 7.9 4 Oeste 9 Oeste 0 -- -- 67
2018-01-13 07:00:00 7.8 5 Oeste 9 Oeste 0 -- -- 70
2018-01-13 06:00:00 7.4 3 Oeste 6 Oeste 0 -- -- 72
2018-01-13 05:00:00 6.6 3 Oeste 4 Noroeste 0 -- -- 76
2018-01-13 04:00:00 6.8 0 Calma 2 Este 0 -- -- 73
2018-01-13 03:00:00 7.4 0 Calma 4 Oeste 0 -- -- 72
2018-01-13 02:00:00 7.6 2 Oeste 5 Oeste 0 -- -- 71
2018-01-13 01:00:00 7.6 0 Calma 2 Sudeste 0 -- -- 71
2018-01-13 00:00:00 8.4 0 Calma 4 Noroeste 0 -- -- 67
2018-01-12 23:00:00 9 0 Calma 4 Oeste 0 -- -- 64
2018-01-12 22:00:00 10 4 Oeste 8 Oeste 0 -- -- 60
2018-01-12 21:00:00 10.1 5 Oeste 8 Oeste 0 -- -- 58
2018-01-12 20:00:00 10.4 3 Oeste 6 Oeste 0 -- -- 60
2018-01-12 19:00:00 10.7 4 Oeste 7 Oeste 0 -- -- 60
2018-01-12 18:00:00 11 0 Calma 6 Sudoeste 0 -- -- 63
2018-01-12 17:00:00 12.4 0 Calma 9 Este 0 -- -- 60
2018-01-12 16:00:00 13 3 Sudeste 10 Sudeste 0 -- -- 61
2018-01-12 15:00:00 12.7 4 Este 14 Nordeste 0 -- -- 62
2018-01-12 14:00:00 12.4 5 Este 17 Este 0 -- -- 60
2018-01-12 13:00:00 11.3 5 Este 15 Nordeste 0 -- -- 58
2018-01-12 12:00:00 10.2 6 Nordeste 13 Nordeste 0 -- -- 58
2018-01-12 11:00:00 8.4 8 Nordeste 17 Nordeste 0 -- -- 56
2018-01-12 10:00:00 7.3 6 Nordeste 21 Nordeste 0 -- -- 61
2018-01-12 09:00:00 6.5 3 Oeste 22 Oeste 0 -- -- 67
2018-01-12 08:00:00 6.8 8 Oeste 18 Oeste 0 -- -- 65
2018-01-12 07:00:00 7 6 Oeste 20 Oeste 0 -- -- 65
2018-01-12 06:00:00 6.9 3 Oeste 10 Oeste 0 -- -- 67
2018-01-12 05:00:00 7.5 6 Oeste 14 Oeste 0 -- -- 62
2018-01-12 04:00:00 8.1 6 Oeste 15 Oeste 0 -- -- 61
2018-01-12 03:00:00 7.9 5 Oeste 16 Oeste 0 -- -- 63
2018-01-12 02:00:00 8.6 5 Oeste 15 Oeste 0 -- -- 61
2018-01-12 01:00:00 9.2 4 Oeste 10 Oeste 0 -- -- 58
2018-01-12 00:00:00 9.2 6 Oeste 18 Oeste 0 -- -- 59
2018-01-11 23:00:00 9.5 5 Oeste 21 Oeste 0 -- -- 59
2018-01-11 22:00:00 10 7 Oeste 15 Sudoeste 0 -- -- 59
2018-01-11 21:00:00 10.4 4 Oeste 12 Nordeste 0 -- -- 56
2018-01-11 20:00:00 11.1 3 Sudoeste 12 Nordeste 0 -- -- 55
2018-01-11 19:00:00 11.1 0 Calma 7 Sudeste 0 -- -- 69
2018-01-11 18:00:00 11.6 3 Este 7 Este 0 -- -- 67
2018-01-11 17:00:00 12.6 4 Este 13 Sudeste 0 -- -- 64
2018-01-11 16:00:00 13.6 5 Este 19 Norte 0 -- -- 58
2018-01-11 15:00:00 13.9 8 Nordeste 21 Nordeste 0 -- -- 43
2018-01-11 14:00:00 13.6 6 Nordeste 18 Nordeste 0 -- -- 44
2018-01-11 13:00:00 13.4 7 Oeste 20 Oeste 0 -- -- 45
2018-01-11 12:00:00 11.7 12 Oeste 22 Oeste 0 -- -- 49
2018-01-11 11:00:00 9.9 8 Oeste 27 Oeste 0 -- -- 53
2018-01-11 10:00:00 9.6 9 Oeste 24 Oeste 0 -- -- 55
2018-01-11 09:00:00 9.4 8 Oeste 21 Noroeste 0 -- -- 55
2018-01-11 08:00:00 9.4 5 Oeste 19 Oeste 0 -- -- 57
2018-01-11 07:00:00 9.5 7 Oeste 22 Noroeste 0 -- -- 58
2018-01-11 06:00:00 9.5 4 Sur 14 Este 0 -- -- 63
2018-01-11 05:00:00 10.7 3 Norte 15 Nordeste 0 -- -- 64
2018-01-11 04:00:00 10.7 3 Nordeste 18 Oeste 0 -- -- 64
2018-01-11 03:00:00 11 4 Sur 21 Oeste 0 -- -- 63
2018-01-11 02:00:00 11.4 5 Oeste 13 Oeste 0 -- -- 61
2018-01-11 01:00:00 11.5 4 Oeste 10 Oeste 0 -- -- 61
2018-01-11 00:00:00 11.8 4 Oeste 15 Oeste 0 -- -- 59
2018-01-10 23:00:00 12.1 5 Oeste 19 Oeste 0 -- -- 58
2018-01-10 22:00:00 11.5 5 Oeste 9 Oeste 0 -- -- 59
2018-01-10 21:00:00 11.5 4 Oeste 22 Oeste 0 -- -- 58
2018-01-10 20:00:00 11.9 7 Oeste 22 Oeste 0 -- -- 56
2018-01-10 19:00:00 12.2 11 Oeste 29 Oeste 0 -- -- 53
2018-01-10 18:00:00 12.8 9 Oeste 26 Oeste 0 -- -- 51
2018-01-10 17:00:00 13.9 8 Oeste 22 Oeste 0 -- -- 48
2018-01-10 16:00:00 14.5 8 Oeste 17 Oeste 0 -- -- 54
2018-01-10 15:00:00 14.9 9 Oeste 24 Oeste 0 -- -- 47
2018-01-10 14:00:00 14.9 9 Oeste 20 Oeste 0 -- -- 46
2018-01-10 13:00:00 13.3 8 Oeste 18 Oeste 0 -- -- 49
2018-01-10 12:00:00 11.8 6 Oeste 14 Noroeste 0 -- -- 52
2018-01-10 11:00:00 10.2 5 Oeste 17 Oeste 0 -- -- 56
2018-01-10 10:00:00 9.7 6 Oeste 16 Oeste 0 -- -- 57
2018-01-10 09:00:00 9.2 3 Nordeste 15 Oeste 0 -- -- 59
2018-01-10 08:00:00 9.7 5 Oeste 15 Oeste 0 -- -- 57
2018-01-10 07:00:00 10.1 8 Oeste 20 Oeste 0 -- -- 55
2018-01-10 06:00:00 10.2 3 Sudoeste 19 Oeste 0 -- -- 54
2018-01-10 05:00:00 10.4 8 Oeste 18 Oeste 0 -- -- 52
2018-01-10 04:00:00 10.8 8 Oeste 16 Oeste 0 -- -- 50
2018-01-10 03:00:00 11.1 6 Oeste 17 Noroeste 0 -- -- 48
2018-01-10 02:00:00 10.3 6 Oeste 16 Oeste 0 -- -- 49
2018-01-10 01:00:00 10.6 4 Oeste 12 Oeste 0 -- -- 46
2018-01-10 00:00:00 10.5 5 Oeste 13 Sudoeste 0 -- -- 49
2018-01-09 23:00:00 10.1 4 Oeste 8 Oeste 0 -- -- 47
2018-01-09 22:00:00 10.4 5 Oeste 17 Sudoeste 0 -- -- 47
2018-01-09 21:00:00 10.6 6 Oeste 15 Oeste 0 -- -- 47
2018-01-09 20:00:00 11.1 6 Oeste 12 Oeste 0 -- -- 47
2018-01-09 19:00:00 11.7 6 Oeste 13 Oeste 0 -- -- 46
2018-01-09 18:00:00 12.3 7 Oeste 19 Sudoeste 0 -- -- 45
2018-01-09 17:00:00 12.9 10 Oeste 24 Oeste 0 -- -- 59
2018-01-09 16:00:00 13.8 10 Sudoeste 24 Oeste 0 -- -- 48
2018-01-09 15:00:00 14.6 8 Oeste 15 Sudoeste 0 -- -- 40
2018-01-09 14:00:00 14.4 7 Oeste 17 Sudoeste 0 -- -- 41
2018-01-09 13:00:00 13.6 9 Oeste 16 Oeste 0 -- -- 40
2018-01-09 12:00:00 11.8 5 Oeste 13 Oeste 0 -- -- 46
2018-01-09 11:00:00 9.3 5 Oeste 12 Oeste 0 -- -- 55
2018-01-09 10:00:00 8.1 4 Oeste 10 Sudoeste 0 -- -- 61
2018-01-09 09:00:00 7.1 3 Oeste 10 Norte 0 -- -- 67
2018-01-09 08:00:00 7.3 6 Oeste 20 Oeste 0 -- -- 64
2018-01-09 07:00:00 6.7 10 Oeste 19 Oeste 0 -- -- 72
2018-01-09 06:00:00 6.7 8 Oeste 21 Oeste 0 -- -- 74
2018-01-09 05:00:00 6.9 7 Oeste 19 Oeste 0 -- -- 74
2018-01-09 04:00:00 7.1 7 Oeste 15 Oeste 0 -- -- 74
2018-01-09 03:00:00 7.4 3 Sudoeste 29 Oeste 0 -- -- 74
2018-01-09 02:00:00 8.1 9 Oeste 21 Oeste 0 -- -- 70
2018-01-09 01:00:00 8.6 6 Oeste 17 Oeste 0 -- -- 70
2018-01-09 00:00:00 9.2 6 Oeste 16 Oeste 0 -- -- 68
2018-01-08 23:00:00 9.5 6 Oeste 13 Oeste 0 -- -- 67
2018-01-08 22:00:00 9.8 5 Oeste 19 Oeste 0 -- -- 66
2018-01-08 21:00:00 10.3 9 Oeste 17 Oeste 0 -- -- 64
2018-01-08 20:00:00 10.6 3 Sudoeste 15 Oeste 0 -- -- 64
2018-01-08 19:00:00 11.1 10 Oeste 19 Noroeste 0 -- -- 64
2018-01-08 18:00:00 11.9 7 Oeste 16 Oeste 0 -- -- 64
2018-01-08 17:00:00 13.5 5 Oeste 12 Oeste 0 -- -- 57
2018-01-08 16:00:00 14.7 3 Oeste 8 Nordeste 0 -- -- 55
2018-01-08 15:00:00 14.1 4 Nordeste 14 Nordeste 0 -- -- 57
2018-01-08 14:00:00 13.7 6 Nordeste 17 Nordeste 0 -- -- 57
2018-01-08 13:00:00 12.8 7 Nordeste 15 Nordeste 6.2 -- -- 58
2018-01-08 12:00:00 11.9 8 Nordeste 22 Nordeste 0 -- -- 61
2018-01-08 11:00:00 10.2 5 Oeste 12 Oeste 0 -- -- 69
2018-01-08 10:00:00 9.2 5 Oeste 10 Oeste 0 -- -- 74
2018-01-08 09:00:00 8.4 5 Oeste 10 Oeste 0 -- -- 78
2018-01-08 08:00:00 8 3 Oeste 8 Oeste 0 -- -- 80
2018-01-08 07:00:00 7.8 0 Calma 6 Oeste 0 -- -- 81
2018-01-08 06:00:00 7.9 4 Oeste 10 Oeste 0 -- -- 79
2018-01-08 05:00:00 8.3 4 Oeste 9 Oeste 0 -- -- 79
2018-01-08 04:00:00 8.1 3 Nordeste 6 Norte 0 -- -- 85
2018-01-08 03:00:00 8.3 0 Calma 8 Oeste 0 -- -- 85
2018-01-08 02:00:00 8.4 4 Oeste 6 Oeste 0 -- -- 86
2018-01-08 01:00:00 8.3 0 Calma 4 Nordeste 0 -- -- 85
2018-01-08 00:00:00 8.7 0 Calma 4 Oeste 0 -- -- 83
2018-01-07 23:00:00 9.3 2 Oeste 6 Oeste 0 -- -- 81
2018-01-07 22:00:00 9.9 3 Oeste 7 Oeste 0 -- -- 78
2018-01-07 21:00:00 9.9 4 Oeste 14 Oeste 0 -- -- 77
2018-01-07 20:00:00 10 9 Oeste 14 Oeste 0 -- -- 77
2018-01-07 19:00:00 10.2 6 Oeste 11 Oeste 0 -- -- 80
2018-01-07 18:00:00 10 5 Nordeste 13 Nordeste 0 -- -- 81
2018-01-07 17:00:00 10 3 Oeste 18 Norte 0.2 -- -- 83
2018-01-07 16:00:00 10.3 6 Oeste 15 Nordeste 0.4 -- -- 85
2018-01-07 15:00:00 10.4 5 Oeste 27 Este 0.4 -- -- 85
2018-01-07 14:00:00 10.7 5 Este 18 Nordeste 0.6 -- -- 89
2018-01-07 13:00:00 11 5 Este 11 Este 0.8 -- -- 84
2018-01-07 12:00:00 11.7 4 Este 18 Sur 0.2 -- -- 79
2018-01-07 11:00:00 11.6 3 Oeste 36 Sudoeste 0.4 -- -- 78
2018-01-07 10:00:00 11.6 8 Oeste 29 Oeste 1.6 -- -- 84
2018-01-07 09:00:00 14.5 6 Sudoeste 19 Sudoeste 0 -- -- 68
2018-01-07 08:00:00 14.6 8 Sudoeste 18 Sudoeste 0 -- -- 69
2018-01-07 07:00:00 14.5 8 Sudoeste 20 Sudoeste 0 -- -- 70
2018-01-07 06:00:00 14.5 7 Sudoeste 19 Sudoeste 0 -- -- 72
2018-01-07 05:00:00 14.7 8 Sudoeste 22 Sudoeste 0 -- -- 73
2018-01-07 04:00:00 14.6 6 Sudoeste 18 Sudoeste 0 -- -- 74
2018-01-07 03:00:00 14.3 2 Este 6 Este 0.4 -- -- 91
2018-01-07 02:00:00 14.8 0 Calma 8 Nordeste 0 -- -- 89
2018-01-07 01:00:00 14.7 2 Sudeste 26 Este 0 -- -- 90
2018-01-07 00:00:00 14.4 8 Este 28 Nordeste 0 -- -- 92
2018-01-06 23:00:00 14.5 10 Este 32 Sudeste 0 -- -- 91
2018-01-06 22:00:00 14.3 10 Este 35 Este 0 -- -- 89
2018-01-06 21:00:00 14.2 13 Este 36 Nordeste 0 -- -- 89
2018-01-06 20:00:00 14.1 14 Este 38 Sudeste 0 -- -- 89
2018-01-06 19:00:00 14.1 14 Este 43 Sudeste 0 -- -- 88
2018-01-06 18:00:00 14.2 10 Este 36 Nordeste 0 -- -- 88
2018-01-06 17:00:00 14.6 12 Este 35 Nordeste 0 -- -- 84
2018-01-06 16:00:00 14.7 10 Nordeste 24 Nordeste 0 -- -- 79
2018-01-06 15:00:00 14.8 7 Este 21 Este 0 -- -- 81
2018-01-06 14:00:00 14.8 7 Este 17 Sudeste 0 -- -- 79
2018-01-06 13:00:00 15.2 6 Este 13 Sudeste 0 -- -- 75
2018-01-06 12:00:00 14.8 3 Este 12 Nordeste 0 -- -- 69
2018-01-06 11:00:00 13.4 3 Nordeste 11 Nordeste 0 -- -- 70
2018-01-06 10:00:00 12.5 4 Nordeste 8 Nordeste 0 -- -- 70
2018-01-06 09:00:00 11.2 2 Nordeste 9 Nordeste 0 -- -- 71
2018-01-06 08:00:00 11.1 3 Nordeste 9 Nordeste 0 -- -- 69
2018-01-06 07:00:00 10.7 2 Nordeste 5 Nordeste 0 -- -- 71
2018-01-06 06:00:00 10.6 0 Calma 4 Sudeste 0 -- -- 70
2018-01-06 05:00:00 11 0 Calma 3 Norte 0 -- -- 69
2018-01-06 04:00:00 10.9 0 Calma 4 Norte 0 -- -- 69
2018-01-06 03:00:00 11.4 0 Calma 5 Este 0 -- -- 69
2018-01-06 02:00:00 12.1 0 Calma 4 Este 0 -- -- 67
2018-01-06 01:00:00 12.7 0 Calma 4 Oeste 0 -- -- 64
2018-01-06 00:00:00 13.4 2 Sudoeste 10 Sudoeste 0 -- -- 61
2018-01-05 23:00:00 14.2 7 Oeste 14 Oeste 0 -- -- 58
2018-01-05 22:00:00 14.7 7 Oeste 15 Oeste 0 -- -- 67
2018-01-05 21:00:00 15.8 5 Oeste 11 Oeste 0 -- -- 46
2018-01-05 20:00:00 16 6 Oeste 14 Oeste 0 -- -- 45
2018-01-05 19:00:00 16.4 5 Oeste 12 Oeste 0 -- -- 46
2018-01-05 18:00:00 17.4 5 Oeste 22 Oeste 0 -- -- 43
2018-01-05 17:00:00 18.6 8 Oeste 23 Oeste 0 -- -- 41
2018-01-05 16:00:00 19.7 5 Sudoeste 30 Oeste 0 -- -- 40
2018-01-05 15:00:00 20.1 9 Oeste 32 Noroeste 0 -- -- 38
2018-01-05 14:00:00 19.8 8 Oeste 28 Oeste 0 -- -- 41
2018-01-05 13:00:00 18.9 9 Oeste 35 Oeste 0 -- -- 43
2018-01-05 12:00:00 17.9 9 Oeste 33 Oeste 0 -- -- 47
2018-01-05 11:00:00 16.3 9 Oeste 32 Noroeste 0 -- -- 52
2018-01-05 10:00:00 15.6 10 Oeste 26 Oeste 0 -- -- 54
2018-01-05 09:00:00 13.9 7 Oeste 15 Oeste 0 -- -- 60
2018-01-05 08:00:00 13.6 6 Oeste 12 Noroeste 0 -- -- 60
2018-01-05 07:00:00 13.1 3 Oeste 6 Oeste 0 -- -- 62
2018-01-05 06:00:00 14.1 4 Sudoeste 15 Oeste 0 -- -- 58
2018-01-05 05:00:00 15.4 8 Oeste 21 Oeste 0 -- -- 53
2018-01-05 04:00:00 15.6 7 Oeste 21 Oeste 0 -- -- 53
2018-01-05 03:00:00 15.1 5 Oeste 15 Oeste 0 -- -- 56
2018-01-05 02:00:00 15.5 4 Oeste 7 Oeste 0 -- -- 55
2018-01-05 01:00:00 16.2 2 Sudoeste 8 Oeste 0 -- -- 54
2018-01-05 00:00:00 16.9 2 Sudoeste 8 Oeste 0 -- -- 52
2018-01-04 23:00:00 17.2 3 Sudoeste 15 Oeste 0 -- -- 54
2018-01-04 22:00:00 18.3 7 Oeste 15 Oeste 0 -- -- 50
2018-01-04 21:00:00 18.5 6 Oeste 16 Oeste 0 -- -- 51
2018-01-04 20:00:00 19.2 9 Oeste 24 Oeste 0 -- -- 48
2018-01-04 19:00:00 19.9 9 Oeste 26 Oeste 0 -- -- 46
2018-01-04 18:00:00 20.2 9 Oeste 30 Oeste 0 -- -- 46
2018-01-04 17:00:00 21.3 10 Oeste 23 Oeste 0 -- -- 43
2018-01-04 16:00:00 22.3 4 Sudoeste 17 Oeste 0 -- -- 42
2018-01-04 15:00:00 22.3 5 Oeste 27 Oeste 0 -- -- 45
2018-01-04 14:00:00 22.5 11 Oeste 30 Oeste 0 -- -- 44
2018-01-04 13:00:00 21.7 11 Oeste 42 Oeste 0 -- -- 46
2018-01-04 12:00:00 20.8 15 Oeste 36 Oeste 0 -- -- 49
2018-01-04 11:00:00 19.5 17 Oeste 31 Oeste 0 -- -- 54
2018-01-04 10:00:00 18.1 8 Oeste 31 Oeste 0 -- -- 59
2018-01-04 09:00:00 17.5 12 Oeste 27 Noroeste 0 -- -- 62
2018-01-04 08:00:00 17.5 12 Oeste 27 Sudoeste 0 -- -- 63
2018-01-04 07:00:00 17.8 14 Oeste 25 Oeste 0 -- -- 61
2018-01-04 06:00:00 17.9 9 Oeste 21 Oeste 0 -- -- 62
2018-01-04 05:00:00 17.8 7 Sudoeste 35 Oeste 0 -- -- 63
2018-01-04 04:00:00 18.1 15 Oeste 30 Oeste 0 -- -- 62
2018-01-04 03:00:00 18.2 9 Oeste 26 Oeste 0 -- -- 62
2018-01-04 02:00:00 18.6 14 Oeste 31 Oeste 0 -- -- 61
2018-01-04 01:00:00 18.5 14 Oeste 39 Oeste 0 -- -- 61
2018-01-04 00:00:00 18.8 15 Oeste 36 Sur 0 -- -- 59
2018-01-03 23:00:00 18.8 9 Sudoeste 35 Oeste 0 -- -- 59
2018-01-03 22:00:00 19.2 10 Oeste 29 Oeste 0 -- -- 58
2018-01-03 21:00:00 19.5 8 Sudoeste 33 Oeste 0 -- -- 55
2018-01-03 20:00:00 20.2 12 Oeste 38 Oeste 0 -- -- 50
2018-01-03 19:00:00 20.9 17 Oeste 39 Oeste 0 -- -- 44
2018-01-03 18:00:00 21.2 12 Oeste 36 Oeste 0 -- -- 40
2018-01-03 17:00:00 21.7 12 Oeste 30 Oeste 0 -- -- 42
2018-01-03 16:00:00 22 10 Sudoeste 27 Oeste 0 -- -- 47
2018-01-03 15:00:00 21.4 8 Oeste 37 Sudoeste 0 -- -- 50
2018-01-03 14:00:00 20.8 13 Oeste 46 Oeste 0 -- -- 53
2018-01-03 13:00:00 20 15 Oeste 41 Oeste 0 -- -- 55
2018-01-03 12:00:00 19.2 18 Oeste 38 Oeste 0 -- -- 57
2018-01-03 11:00:00 17.8 14 Oeste 33 Oeste 0 -- -- 62
2018-01-03 10:00:00 16.6 16 Oeste 41 Oeste 0 -- -- 64
2018-01-03 09:00:00 15.5 5 Sudeste 21 Oeste 0 -- -- 67
2018-01-03 08:00:00 15.1 5 Nordeste 22 Nordeste 0 -- -- 68
2018-01-03 07:00:00 15.1 9 Oeste 27 Oeste 0 -- -- 68
2018-01-03 06:00:00 15.2 9 Oeste 25 Oeste 0 -- -- 68
2018-01-03 05:00:00 14.9 4 Oeste 18 Sudoeste 0 -- -- 68
2018-01-03 04:00:00 15.4 6 Oeste 19 Sudoeste 0 -- -- 66
2018-01-03 03:00:00 15.3 6 Este 19 Nordeste 0 -- -- 68
2018-01-03 02:00:00 15.8 8 Nordeste 33 Nordeste 0 -- -- 64
2018-01-03 01:00:00 15.4 8 Oeste 26 Oeste 0 -- -- 67
2018-01-03 00:00:00 15.3 4 Sur 20 Nordeste 0 -- -- 67
2018-01-02 23:00:00 15.2 4 Oeste 15 Oeste 0 -- -- 66
2018-01-02 22:00:00 15.6 4 Oeste 18 Oeste 0 -- -- 65
2018-01-02 21:00:00 16.1 6 Oeste 21 Oeste 0 -- -- 62
2018-01-02 20:00:00 16.4 5 Sudoeste 19 Oeste 0 -- -- 61
2018-01-02 19:00:00 16.7 7 Oeste 21 Oeste 0 -- -- 59
2018-01-02 18:00:00 17 8 Oeste 18 Oeste 0 -- -- 57
2018-01-02 17:00:00 17.6 6 Oeste 19 Oeste 0 -- -- 53
2018-01-02 16:00:00 18.3 9 Oeste 27 Oeste 0 -- -- 50
2018-01-02 15:00:00 18.1 7 Oeste 27 Oeste 0 -- -- 50
2018-01-02 14:00:00 16.5 3 Este 13 Oeste 0 -- -- 52
2018-01-02 13:00:00 15.3 3 Sudoeste 15 Norte 0 -- -- 55
2018-01-02 12:00:00 13.5 4 Nordeste 12 Nordeste 0 -- -- 59
2018-01-02 11:00:00 13.2 3 Este 14 Nordeste 0 -- -- 59
2018-01-02 10:00:00 12.9 4 Nordeste 16 Noroeste 0 -- -- 59
2018-01-02 09:00:00 12.5 7 Oeste 31 Oeste 0 -- -- 58
2018-01-02 08:00:00 11.6 6 Oeste 13 Oeste 0 -- -- 58
2018-01-02 07:00:00 11.9 5 Oeste 19 Noroeste 0 -- -- 55
2018-01-02 06:00:00 11.8 6 Oeste 18 Sudoeste 0 -- -- 58
2018-01-02 05:00:00 12.3 10 Oeste 22 Noroeste 0 -- -- 58
2018-01-02 04:00:00 11.9 6 Oeste 20 Oeste 0 -- -- 64
2018-01-02 03:00:00 10.7 0 Calma 9 Oeste 0 -- -- 69
2018-01-02 02:00:00 12.2 5 Oeste 14 Oeste 0 -- -- 59
2018-01-02 01:00:00 12.6 0 Calma 19 Oeste 0 -- -- 58
2018-01-02 00:00:00 13.1 8 Oeste 24 Oeste 0 -- -- 56
2018-01-01 23:00:00 13.4 6 Sudoeste 18 Sudoeste 0 -- -- 56
2018-01-01 22:00:00 14.1 6 Sudoeste 26 Sudoeste 0 -- -- 52
2018-01-01 21:00:00 15 7 Oeste 21 Oeste 0 -- -- 46
2018-01-01 20:00:00 15.3 16 Oeste 39 Oeste 0 -- -- 41
2018-01-01 19:00:00 14.7 15 Oeste 27 Oeste 0 -- -- 41
2018-01-01 18:00:00 14.7 13 Oeste 28 Oeste 0 -- -- 40
2018-01-01 17:00:00 15.1 15 Oeste 40 Oeste 0 -- -- 38
2018-01-01 16:00:00 16.1 12 Oeste 31 Oeste 0 -- -- 37
2018-01-01 15:00:00 15.7 13 Oeste 37 Sudoeste 0 -- -- 39
2018-01-01 14:00:00 15.1 21 Oeste 36 Sudoeste 0 -- -- 44
2018-01-01 13:00:00 15.1 6 Oeste 22 Oeste 0 -- -- 37
2018-01-01 12:00:00 13.4 14 Oeste 34 Sudoeste 0 -- -- 43
2018-01-01 11:00:00 12 7 Sudoeste 27 Oeste 0 -- -- 47
2018-01-01 10:00:00 11.2 9 Oeste 23 Noroeste 0 -- -- 48
2018-01-01 09:00:00 10.3 5 Sudoeste 24 Oeste 0 -- -- 52
2018-01-01 08:00:00 10.7 14 Oeste 29 Oeste 0 -- -- 51
2018-01-01 07:00:00 11 13 Oeste 29 Oeste 0 -- -- 50
2018-01-01 06:00:00 11.1 12 Oeste 25 Oeste 0 -- -- 50
2018-01-01 05:00:00 10.9 7 Sudoeste 23 Oeste 0 -- -- 52
2018-01-01 04:00:00 11.4 7 Este 18 Sudoeste 0 -- -- 53
2018-01-01 03:00:00 11.6 6 Oeste 21 Sudoeste 0 -- -- 54
2018-01-01 02:00:00 12.9 8 Oeste 33 Oeste 0 -- -- 52
2018-01-01 01:00:00 14.8 8 Noroeste 22 Oeste 0 -- -- 55
2018-01-01 00:00:00 15.3 3 Sudoeste 22 Noroeste 0 -- -- 54
2017-12-31 23:00:00 15.7 6 Oeste 23 Oeste 0 -- -- 51
2017-12-31 22:00:00 15.1 3 Oeste 11 Sudoeste 0 -- -- 52
2017-12-31 21:00:00 15.4 5 Oeste 17 Oeste 0 -- -- 51
2017-12-31 20:00:00 15.8 8 Oeste 26 Oeste 0 -- -- 50
2017-12-31 19:00:00 16 8 Oeste 26 Noroeste 0 -- -- 50
2017-12-31 18:00:00 16.3 8 Oeste 25 Oeste 0 -- -- 49
2017-12-31 17:00:00 17.2 9 Oeste 22 Oeste 0 -- -- 48
2017-12-31 16:00:00 19 6 Oeste 18 Oeste 0 -- -- 47
2017-12-31 15:00:00 18.3 8 Oeste 18 Sudoeste 0 -- -- 52
2017-12-31 14:00:00 18.7 8 Oeste 16 Oeste 0 -- -- 50
2017-12-31 13:00:00 16.4 5 Oeste 13 Sudoeste 0 -- -- 56
2017-12-31 12:00:00 16.1 7 Oeste 13 Oeste 0 -- -- 57
2017-12-31 11:00:00 14.4 5 Oeste 12 Oeste 0 -- -- 62
2017-12-31 10:00:00 12.8 5 Oeste 8 Oeste 0 -- -- 68
2017-12-31 09:00:00 12.3 4 Oeste 10 Oeste 0 -- -- 70
2017-12-31 08:00:00 12.6 6 Oeste 12 Oeste 0 -- -- 68
2017-12-31 07:00:00 12.6 6 Noroeste 13 Oeste 0 -- -- 69
2017-12-31 06:00:00 12.5 6 Noroeste 13 Oeste 0 -- -- 70
2017-12-31 05:00:00 12.3 3 Oeste 7 Oeste 0 -- -- 73
2017-12-31 04:00:00 11.6 2 Oeste 4 Sudoeste 0 -- -- 78
2017-12-31 03:00:00 11.6 0 Calma 4 Oeste 0 -- -- 78
2017-12-31 02:00:00 12.2 2 Oeste 5 Oeste 0 -- -- 76
2017-12-31 01:00:00 12.8 2 Norte 10 Sudoeste 0 -- -- 74